createdAt,value
2018-01-22T00:02:09.083Z,9.95
2018-01-22T00:04:35.674Z,11.20
2018-01-22T00:07:04.565Z,10.18
2018-01-22T00:09:31.044Z,9.68
2018-01-22T00:12:03.261Z,13.55
2018-01-22T00:14:30.870Z,11.40
2018-01-22T00:17:00.745Z,9.90
2018-01-22T00:22:01.403Z,13.68
2018-01-22T00:24:28.711Z,12.83
2018-01-22T00:26:56.216Z,12.07
2018-01-22T00:29:23.518Z,9.68
2018-01-22T00:31:49.946Z,9.55
2018-01-22T00:34:17.227Z,17.00
2018-01-22T00:36:50.811Z,10.55
2018-01-22T00:39:18.442Z,9.10
2018-01-22T00:41:45.159Z,10.33
2018-01-22T00:44:14.424Z,10.57
2018-01-22T00:46:41.760Z,10.68
2018-01-22T00:49:09.402Z,10.48
2018-01-22T00:51:39.000Z,9.73
2018-01-22T00:54:06.652Z,9.30
2018-01-22T00:56:33.939Z,9.02
2018-01-22T00:59:01.341Z,12.43
2018-01-22T01:01:28.199Z,11.73
2018-01-22T01:03:54.576Z,11.65
2018-01-22T01:06:22.862Z,13.13
2018-01-22T01:08:50.717Z,10.95
2018-01-22T01:11:18.095Z,12.00
2018-01-22T01:13:44.276Z,11.85
2018-01-22T01:16:10.321Z,9.30
2018-01-22T01:18:37.058Z,11.12
2018-01-22T01:26:08.995Z,11.27
2018-01-22T01:28:35.176Z,12.43
2018-01-22T01:31:01.483Z,12.25
2018-01-22T01:33:27.530Z,13.73
2018-01-22T01:35:55.112Z,18.17
2018-01-22T01:38:22.787Z,14.73
2018-01-22T01:40:55.269Z,12.60
2018-01-22T01:43:23.055Z,13.25
2018-01-22T01:45:49.856Z,9.55
2018-01-22T01:48:20.797Z,12.48
2018-01-22T01:50:47.682Z,12.25
2018-01-22T01:53:16.203Z,11.95
2018-01-22T01:55:42.306Z,10.40
2018-01-22T01:58:10.023Z,13.32
2018-01-22T02:00:36.163Z,15.05
2018-01-22T02:03:02.457Z,13.73
2018-01-22T02:05:31.066Z,11.90
2018-01-22T02:07:57.459Z,10.18
2018-01-22T02:10:23.420Z,14.87
2018-01-22T02:12:50.043Z,13.27
2018-01-22T02:15:16.078Z,11.23
2018-01-22T02:17:43.811Z,12.68
2018-01-22T02:20:11.274Z,14.75
2018-01-22T02:22:38.300Z,16.75
2018-01-22T02:25:08.674Z,14.52
2018-01-22T02:27:35.714Z,16.62
2018-01-22T02:30:01.744Z,14.52
2018-01-22T02:32:27.810Z,16.75
2018-01-22T02:34:58.036Z,14.38
2018-01-22T02:37:28.320Z,15.88
2018-01-22T02:39:58.061Z,17.52
2018-01-22T02:42:26.201Z,15.50
2018-01-22T02:44:54.236Z,16.40
2018-01-22T02:49:53.936Z,17.52
2018-01-22T02:52:27.386Z,17.33
2018-01-22T02:54:53.408Z,19.60
2018-01-22T02:57:20.150Z,16.50
2018-01-22T03:02:17.535Z,17.85
2018-01-22T03:07:19.357Z,25.15
2018-01-22T03:09:45.479Z,20.20
2018-01-22T03:12:12.817Z,17.70
2018-01-22T03:17:11.871Z,18.65
2018-01-22T03:22:11.813Z,16.42
2018-01-22T03:24:38.937Z,18.70
2018-01-22T03:29:38.799Z,21.10
2018-01-22T03:32:04.844Z,15.52
2018-01-22T03:34:32.413Z,21.10
2018-01-22T03:37:03.200Z,17.48
2018-01-22T03:42:00.852Z,15.20
2018-01-22T03:44:29.863Z,16.85
2018-01-22T03:46:56.794Z,20.73
2018-01-22T03:51:55.911Z,18.37
2018-01-22T03:54:23.381Z,15.95
2018-01-22T03:56:51.957Z,15.95
2018-01-22T03:59:18.000Z,21.00
2018-01-22T04:01:45.863Z,17.42
2018-01-22T04:04:14.655Z,16.55
2018-01-22T04:06:41.159Z,14.73
2018-01-22T04:09:09.648Z,18.08
2018-01-22T04:11:37.864Z,14.65
2018-01-22T04:16:36.590Z,17.55
2018-01-22T04:19:06.225Z,18.77
2018-01-22T04:21:34.017Z,20.75
2018-01-22T04:24:01.882Z,18.98
2018-01-22T04:26:30.760Z,17.10
2018-01-22T04:28:58.796Z,19.30
2018-01-22T04:31:24.998Z,19.33
2018-01-22T04:33:54.483Z,14.82
2018-01-22T04:36:24.888Z,18.12
2018-01-22T04:38:52.089Z,16.30
2018-01-22T04:41:18.523Z,18.08
2018-01-22T04:43:45.344Z,15.80
2018-01-22T04:48:44.368Z,15.85
2018-01-22T04:51:13.550Z,16.08
2018-01-22T04:53:41.231Z,18.77
2018-01-22T04:58:38.627Z,19.65
2018-01-22T05:01:06.030Z,18.80
2018-01-22T05:03:38.306Z,18.17
2018-01-22T05:06:05.343Z,14.45
2018-01-22T05:08:37.153Z,17.25
2018-01-22T05:11:04.129Z,16.75
2018-01-22T05:13:38.929Z,21.98
2018-01-22T05:18:38.934Z,18.65
2018-01-22T05:21:09.010Z,14.93
2018-01-22T05:23:36.176Z,16.83
2018-01-22T05:26:03.597Z,15.27
2018-01-22T05:28:30.393Z,12.15
2018-01-22T05:30:56.525Z,14.02
2018-01-22T05:33:23.028Z,14.27
2018-01-22T05:35:53.502Z,12.02
2018-01-22T05:38:20.641Z,14.15
2018-01-22T05:40:50.697Z,15.25
2018-01-22T05:43:19.528Z,15.20
2018-01-22T05:45:46.907Z,11.05
2018-01-22T05:48:17.591Z,13.02
2018-01-22T05:50:45.474Z,14.52
2018-01-22T05:53:12.564Z,13.52
2018-01-22T05:55:39.312Z,14.80
2018-01-22T05:58:11.071Z,10.40
2018-01-22T06:00:39.443Z,11.77
2018-01-22T06:03:09.286Z,12.18
2018-01-22T06:05:38.715Z,13.35
2018-01-22T06:08:08.363Z,13.20
2018-01-22T06:10:38.600Z,12.13
2018-01-22T06:13:06.636Z,16.90
2018-01-22T06:15:36.425Z,11.10
2018-01-22T06:18:04.150Z,11.98
2018-01-22T06:20:30.796Z,13.93
2018-01-22T06:23:01.173Z,12.60
2018-01-22T06:25:29.679Z,12.95
2018-01-22T06:27:59.909Z,12.70
2018-01-22T06:30:26.616Z,13.27
2018-01-22T06:32:53.593Z,12.68
2018-01-22T06:35:19.993Z,14.02
2018-01-22T06:37:49.493Z,13.98
2018-01-22T06:40:19.285Z,12.40
2018-01-22T06:42:48.670Z,17.83
2018-01-22T06:45:17.933Z,12.90
2018-01-22T06:47:45.862Z,12.57
2018-01-22T06:50:13.430Z,13.00
2018-01-22T06:52:45.110Z,14.50
2018-01-22T06:55:14.191Z,17.95
2018-01-22T06:57:44.852Z,18.75
2018-01-22T07:00:14.172Z,15.50
2018-01-22T07:05:16.081Z,14.57
2018-01-22T07:07:45.385Z,14.82
2018-01-22T07:10:15.249Z,43.15
2018-01-22T07:12:44.081Z,35.60
2018-01-22T07:15:13.332Z,46.63
2018-01-22T07:17:43.808Z,15.95
2018-01-22T07:20:10.851Z,22.13
2018-01-22T07:22:42.053Z,12.02
2018-01-22T07:25:10.969Z,13.02
2018-01-22T07:27:37.097Z,13.20
2018-01-22T07:30:04.647Z,12.10
2018-01-22T07:32:32.115Z,13.27
2018-01-22T07:34:59.987Z,12.77
2018-01-22T07:37:29.858Z,13.55
2018-01-22T07:39:56.732Z,14.25
2018-01-22T07:42:22.875Z,12.93
2018-01-22T07:44:51.316Z,18.08
2018-01-22T07:47:19.672Z,14.50
2018-01-22T07:52:20.664Z,15.23
2018-01-22T07:57:23.176Z,18.48
2018-01-22T08:02:23.990Z,14.75
2018-01-22T08:04:51.019Z,15.07
2018-01-22T08:07:21.386Z,14.77
2018-01-22T08:09:50.894Z,37.47
2018-01-22T08:12:19.903Z,31.98
2018-01-22T08:14:48.728Z,14.48
2018-01-22T08:17:16.123Z,13.38
2018-01-22T08:22:17.750Z,15.98
2018-01-22T08:24:44.508Z,13.82
2018-01-22T08:27:12.467Z,21.12
2018-01-22T08:32:11.326Z,16.42
2018-01-22T08:34:38.068Z,12.25
2018-01-22T08:37:04.245Z,13.93
2018-01-22T08:39:31.458Z,15.10
2018-01-22T08:41:59.947Z,11.82
2018-01-22T08:46:57.491Z,11.65
2018-01-22T08:49:23.963Z,10.95
2018-01-22T08:51:52.151Z,10.35
2018-01-22T08:56:53.647Z,11.35
2018-01-22T08:59:21.739Z,9.57
2018-01-22T09:01:49.085Z,12.73
2018-01-22T09:04:15.198Z,9.25
2018-01-22T09:06:42.678Z,9.80
2018-01-22T09:09:08.853Z,10.52
2018-01-22T09:11:35.692Z,12.68
2018-01-22T09:14:01.966Z,11.45
2018-01-22T09:16:28.111Z,10.75
2018-01-22T09:18:54.881Z,12.57
2018-01-22T09:21:23.008Z,11.75
2018-01-22T09:23:52.556Z,13.48
2018-01-22T09:26:20.877Z,11.98
2018-01-22T09:31:18.953Z,13.15
2018-01-22T09:33:46.575Z,13.70
2018-01-22T09:36:12.787Z,14.57
2018-01-22T09:38:38.954Z,16.50
2018-01-22T09:41:05.143Z,17.27
2018-01-22T09:43:31.466Z,21.12
2018-01-22T09:45:57.553Z,15.00
2018-01-22T09:48:23.671Z,18.85
2018-01-22T09:50:51.346Z,16.25
2018-01-22T09:53:17.692Z,16.02
2018-01-22T09:55:43.969Z,20.65
2018-01-22T09:58:10.236Z,18.12
2018-01-22T10:05:37.857Z,26.23
2018-01-22T10:08:07.467Z,20.65
2018-01-22T10:10:35.381Z,21.05
2018-01-22T10:15:35.047Z,24.98
2018-01-22T10:18:01.348Z,25.73
2018-01-22T10:20:27.842Z,23.85
2018-01-22T10:23:05.553Z,22.50
2018-01-22T10:28:09.560Z,22.80
2018-01-22T10:30:36.603Z,25.62
2018-01-22T10:33:03.136Z,27.35
2018-01-22T10:35:30.387Z,25.10
2018-01-22T10:37:56.611Z,21.42
2018-01-22T10:40:23.764Z,20.27
2018-01-22T10:42:50.868Z,22.85
2018-01-22T10:45:18.423Z,24.80
2018-01-22T10:47:46.503Z,22.75
2018-01-22T10:52:43.337Z,24.50
2018-01-22T10:55:13.330Z,25.55
2018-01-22T10:57:39.367Z,23.45
2018-01-22T11:00:10.168Z,23.98
2018-01-22T11:02:36.312Z,25.77
2018-01-22T11:05:05.143Z,25.67
2018-01-22T11:07:31.919Z,24.98
2018-01-22T11:09:59.101Z,22.90
2018-01-22T11:12:26.591Z,23.25
2018-01-22T11:14:54.116Z,21.35
2018-01-22T11:17:22.566Z,25.80
2018-01-22T11:19:51.830Z,23.25
2018-01-22T11:22:21.608Z,25.88
2018-01-22T11:27:22.619Z,23.58
2018-01-22T11:29:49.288Z,25.67
2018-01-22T11:32:15.463Z,26.02
2018-01-22T11:34:41.981Z,21.02
2018-01-22T11:37:08.154Z,24.63
2018-01-22T11:39:34.251Z,23.55
2018-01-22T11:42:00.448Z,25.60
2018-01-22T11:44:27.807Z,21.70
2018-01-22T11:46:56.289Z,19.65
2018-01-22T11:49:26.521Z,23.40
2018-01-22T11:51:53.230Z,19.83
2018-01-22T11:54:21.892Z,17.20
2018-01-22T11:56:52.143Z,20.83
2018-01-22T11:59:19.804Z,18.37
2018-01-22T12:01:46.714Z,14.77
2018-01-22T12:04:12.989Z,20.30
2018-01-22T12:06:39.080Z,19.95
2018-01-22T12:09:05.138Z,16.40
2018-01-22T12:11:31.686Z,18.05
2018-01-22T12:13:59.277Z,19.37
2018-01-22T12:16:26.552Z,18.25
2018-01-22T12:23:58.905Z,20.03
2018-01-22T12:26:25.257Z,21.47
2018-01-22T12:31:21.955Z,24.10
2018-01-22T12:33:49.231Z,23.03
2018-01-22T12:36:16.112Z,22.53
2018-01-22T12:38:45.174Z,22.37
2018-01-22T12:41:11.217Z,19.15
2018-01-22T12:43:37.258Z,24.27
2018-01-22T12:46:03.741Z,20.17
2018-01-22T12:48:29.866Z,20.13
2018-01-22T12:50:56.935Z,22.55
2018-01-22T12:53:23.245Z,21.70
2018-01-22T12:55:50.579Z,22.05
2018-01-22T12:58:19.256Z,22.83
2018-01-22T13:00:46.142Z,23.50
2018-01-22T13:03:12.245Z,24.15
2018-01-22T13:05:38.344Z,19.77
2018-01-22T13:08:05.072Z,22.90
2018-01-22T13:10:32.715Z,21.90
2018-01-22T13:13:02.036Z,20.97
2018-01-22T13:15:28.031Z,22.53
2018-01-22T13:17:54.950Z,21.00
2018-01-22T13:20:21.641Z,22.03
2018-01-22T13:22:50.509Z,21.40
2018-01-22T13:25:17.576Z,20.90
2018-01-22T13:27:43.701Z,19.57
2018-01-22T13:30:11.962Z,19.30
2018-01-22T13:32:39.625Z,22.17
2018-01-22T13:35:06.766Z,24.03
2018-01-22T13:37:33.727Z,28.13
2018-01-22T13:40:06.820Z,24.67
2018-01-22T13:42:32.834Z,22.30
2018-01-22T13:47:33.088Z,23.20
2018-01-22T13:50:00.347Z,26.87
2018-01-22T13:52:26.774Z,22.83
2018-01-22T13:54:56.093Z,23.03
2018-01-22T13:57:22.761Z,22.47
2018-01-22T13:59:51.015Z,27.00
2018-01-22T14:02:17.231Z,20.23
2018-01-22T14:04:44.186Z,25.87
2018-01-22T14:07:10.156Z,24.40
2018-01-22T14:09:39.614Z,26.47
2018-01-22T14:12:06.662Z,23.97
2018-01-22T14:14:32.725Z,25.13
2018-01-22T14:16:59.278Z,25.47
2018-01-22T14:19:25.658Z,23.53
2018-01-22T14:21:52.755Z,21.23
2018-01-22T14:24:18.843Z,28.23
2018-01-22T14:26:45.231Z,22.97
2018-01-22T14:29:11.226Z,21.27
2018-01-22T14:31:38.015Z,21.17
2018-01-22T14:34:04.995Z,20.83
2018-01-22T14:36:32.565Z,23.57
2018-01-22T14:38:58.634Z,24.67
2018-01-22T14:41:24.657Z,21.70
2018-01-22T14:43:50.680Z,23.40
2018-01-22T14:46:16.671Z,21.37
2018-01-22T14:48:43.550Z,24.90
2018-01-22T14:51:09.567Z,20.30
2018-01-22T14:53:35.655Z,24.80
2018-01-22T14:56:02.486Z,20.80
2018-01-22T14:58:30.322Z,26.33
2018-01-22T15:00:56.311Z,22.10
2018-01-22T15:03:22.306Z,21.77
2018-01-22T15:05:48.859Z,21.57
2018-01-22T15:08:15.341Z,23.27
2018-01-22T15:10:41.484Z,20.93
2018-01-22T15:13:08.140Z,21.80
2018-01-22T15:15:34.151Z,20.07
2018-01-22T15:18:01.425Z,22.73
2018-01-22T15:20:30.380Z,19.57
2018-01-22T15:22:57.976Z,21.30
2018-01-22T15:25:24.236Z,24.53
2018-01-22T15:27:50.302Z,21.47
2018-01-22T15:32:49.158Z,21.57
2018-01-22T15:35:16.462Z,22.90
2018-01-22T15:40:18.728Z,22.80
2018-01-22T15:45:17.247Z,22.83
2018-01-22T15:47:43.319Z,23.70
2018-01-22T15:50:10.038Z,28.87
2018-01-22T15:52:39.471Z,25.67
2018-01-22T15:55:07.048Z,25.40
2018-01-22T15:57:33.115Z,25.43
2018-01-22T15:59:59.110Z,26.53
2018-01-22T16:02:25.129Z,29.17
2018-01-22T16:07:24.143Z,25.00
2018-01-22T16:09:52.046Z,28.80
2018-01-22T16:12:22.386Z,26.93
2018-01-22T16:14:51.013Z,27.00
2018-01-22T16:17:20.236Z,30.70
2018-01-22T16:19:47.468Z,25.33
2018-01-22T16:22:14.293Z,24.40
2018-01-22T16:24:41.535Z,27.77
2018-01-22T16:27:09.085Z,24.53
2018-01-22T16:29:35.134Z,27.10
2018-01-22T16:32:03.219Z,23.10
2018-01-22T16:34:30.978Z,28.20
2018-01-22T16:36:57.090Z,25.33
2018-01-22T16:39:23.615Z,25.30
2018-01-22T16:41:52.326Z,25.90
2018-01-22T16:44:19.114Z,20.87
2018-01-22T16:46:52.401Z,29.80
2018-01-22T16:49:19.435Z,25.83
2018-01-22T16:51:47.134Z,26.77
2018-01-22T16:54:14.081Z,23.63
2018-01-22T16:56:40.156Z,28.10
2018-01-22T16:59:06.281Z,26.80
2018-01-22T17:01:33.208Z,28.83
2018-01-22T17:03:59.232Z,31.03
2018-01-22T17:06:27.283Z,28.47
2018-01-22T17:08:54.208Z,25.43
2018-01-22T17:11:20.233Z,26.80
2018-01-22T17:13:46.401Z,28.23
2018-01-22T17:16:12.374Z,27.50
2018-01-22T17:18:39.443Z,29.47
2018-01-22T17:21:06.266Z,29.80
2018-01-22T17:23:33.013Z,26.87
2018-01-22T17:25:59.858Z,29.83
2018-01-22T17:28:27.436Z,27.23
2018-01-22T17:30:53.435Z,28.40
2018-01-22T17:33:19.624Z,26.73
2018-01-22T17:35:45.595Z,29.23
2018-01-22T17:38:11.564Z,26.10
2018-01-22T17:40:37.519Z,25.13
2018-01-22T17:43:04.312Z,28.30
2018-01-22T17:45:30.259Z,24.80
2018-01-22T17:47:56.810Z,34.20
2018-01-22T17:50:22.765Z,24.70
2018-01-22T17:52:48.738Z,28.80
2018-01-22T17:55:14.695Z,28.20
2018-01-22T17:57:40.850Z,26.47
2018-01-22T18:00:07.682Z,31.07
2018-01-22T18:02:33.908Z,27.10
2018-01-22T18:05:00.195Z,26.50
2018-01-22T18:07:26.134Z,29.10
2018-01-22T18:09:52.105Z,28.27
2018-01-22T18:12:19.248Z,24.40
2018-01-22T18:14:45.555Z,25.70
2018-01-22T18:17:12.341Z,26.43
2018-01-22T18:19:38.715Z,44.13
2018-01-22T18:22:04.763Z,28.20
2018-01-22T18:24:30.939Z,25.30
2018-01-22T18:26:56.974Z,29.90
2018-01-22T18:29:23.969Z,24.70
2018-01-22T18:31:50.006Z,28.33
2018-01-22T18:34:16.007Z,26.87
2018-01-22T18:36:44.158Z,31.80
2018-01-22T18:39:11.260Z,28.30
2018-01-22T18:41:37.314Z,26.13
2018-01-22T18:44:03.451Z,26.77
2018-01-22T18:46:29.614Z,26.33
2018-01-22T18:48:56.460Z,24.27
2018-01-22T18:51:22.549Z,30.80
2018-01-22T18:53:48.702Z,23.60
2018-01-22T18:56:14.708Z,26.73
2018-01-22T18:58:40.842Z,26.80
2018-01-22T19:01:06.919Z,27.20
2018-01-22T19:03:33.009Z,24.07
2018-01-22T19:05:59.007Z,26.23
2018-01-22T19:08:25.143Z,26.80
2018-01-22T19:10:51.966Z,25.83
2018-01-22T19:13:17.951Z,26.60
2018-01-22T19:15:43.983Z,23.77
2018-01-22T19:18:09.980Z,24.80
2018-01-22T19:20:36.014Z,23.60
2018-01-22T19:23:02.003Z,24.80
2018-01-22T19:25:28.173Z,24.83
2018-01-22T19:27:55.102Z,30.63
2018-01-22T19:30:21.129Z,20.97
2018-01-22T19:32:47.166Z,23.63
2018-01-22T19:35:13.167Z,21.93
2018-01-22T19:37:39.231Z,28.73
2018-01-22T19:40:05.542Z,26.07
2018-01-22T19:42:33.621Z,23.33
2018-01-22T19:44:59.641Z,26.07
2018-01-22T19:47:25.674Z,25.27
2018-01-22T19:49:51.798Z,26.30
2018-01-22T19:52:17.899Z,23.90
2018-01-22T19:54:44.226Z,23.60
2018-01-22T19:57:10.385Z,28.60
2018-01-22T19:59:37.401Z,27.10
2018-01-22T20:02:05.941Z,21.53
2018-01-22T20:04:32.771Z,23.50
2018-01-22T20:07:00.033Z,23.50
2018-01-22T20:09:26.599Z,24.40
2018-01-22T20:11:52.893Z,23.13
2018-01-22T20:14:20.602Z,24.90
2018-01-22T20:16:47.838Z,27.10
2018-01-22T20:19:13.999Z,25.50
2018-01-22T20:21:40.162Z,20.40
2018-01-22T20:24:06.584Z,21.50
2018-01-22T20:26:32.696Z,26.93
2018-01-22T20:28:58.956Z,24.50
2018-01-22T20:31:25.964Z,24.83
2018-01-22T20:33:52.001Z,25.20
2018-01-22T20:36:18.745Z,25.60
2018-01-22T20:38:45.775Z,32.33
2018-01-22T20:41:12.925Z,23.67
2018-01-22T20:43:39.358Z,24.03
2018-01-22T20:46:05.683Z,22.53
2018-01-22T20:48:32.036Z,29.00
2018-01-22T20:50:58.279Z,26.77
2018-01-22T20:53:26.204Z,23.73
2018-01-22T20:55:52.293Z,27.10
2018-01-22T20:58:22.604Z,22.37
2018-01-22T21:00:48.721Z,25.30
2018-01-22T21:03:14.871Z,30.50
2018-01-22T21:05:40.926Z,25.43
2018-01-22T21:08:07.148Z,28.57
2018-01-22T21:10:33.811Z,25.63
2018-01-22T21:12:59.998Z,23.27
2018-01-22T21:15:28.669Z,24.00
2018-01-22T21:17:54.939Z,30.93
2018-01-22T21:20:21.917Z,21.53
2018-01-22T21:22:54.866Z,25.73
2018-01-22T21:25:22.277Z,20.47
2018-01-22T21:27:48.353Z,23.17
2018-01-22T21:30:15.326Z,27.80
2018-01-22T21:35:15.024Z,23.07
2018-01-22T21:37:41.813Z,22.17
2018-01-22T21:40:08.761Z,26.70
2018-01-22T21:42:40.202Z,19.47
2018-01-22T21:45:08.271Z,20.77
2018-01-22T21:47:34.402Z,20.97
2018-01-22T21:50:01.151Z,22.90
2018-01-22T21:52:27.239Z,26.30
2018-01-22T21:54:53.782Z,23.30
2018-01-22T21:57:20.079Z,20.70
2018-01-22T21:59:48.592Z,22.50
2018-01-22T22:02:14.725Z,23.13
2018-01-22T22:04:41.365Z,22.73
2018-01-22T22:07:07.435Z,21.77
2018-01-22T22:09:35.560Z,21.93
2018-01-22T22:12:02.758Z,21.27
2018-01-22T22:14:29.294Z,21.23
2018-01-22T22:16:56.867Z,24.80
2018-01-22T22:19:25.042Z,20.93
2018-01-22T22:21:51.098Z,17.93
2018-01-22T22:24:17.399Z,21.50
2018-01-22T22:26:43.648Z,20.70
2018-01-22T22:29:09.791Z,15.70
2018-01-22T22:31:35.907Z,20.00
2018-01-22T22:36:36.773Z,14.60
2018-01-22T22:39:03.324Z,17.80
2018-01-22T22:41:29.371Z,13.20
2018-01-22T22:43:59.221Z,8.87
2018-01-22T22:46:25.460Z,13.07
2018-01-22T22:48:52.324Z,20.27
2018-01-22T22:51:18.532Z,16.80
2018-01-22T22:53:44.831Z,13.67
2018-01-22T22:56:11.235Z,20.33
2018-01-22T22:58:37.461Z,12.17
2018-01-22T23:01:05.236Z,19.40
2018-01-22T23:03:33.297Z,19.00
2018-01-22T23:05:59.540Z,18.83
2018-01-22T23:08:27.040Z,14.83
2018-01-22T23:10:53.096Z,17.90
2018-01-22T23:13:19.411Z,26.30
2018-01-22T23:15:45.635Z,15.93
2018-01-22T23:18:11.917Z,16.23
2018-01-22T23:20:38.636Z,13.47
2018-01-22T23:23:06.516Z,12.03
2018-01-22T23:25:34.214Z,13.13
2018-01-22T23:28:00.313Z,15.23
2018-01-22T23:30:26.337Z,11.83
2018-01-22T23:32:53.152Z,9.13
2018-01-22T23:35:20.320Z,11.80
2018-01-22T23:37:47.672Z,11.70
2018-01-22T23:40:13.892Z,11.70
2018-01-22T23:42:41.452Z,12.43
2018-01-22T23:45:07.513Z,14.17
2018-01-22T23:47:33.793Z,12.03
2018-01-22T23:50:00.801Z,10.60
2018-01-22T23:52:26.955Z,12.27
2018-01-22T23:54:53.046Z,8.40
2018-01-22T23:57:20.246Z,14.23
2018-01-22T23:59:46.313Z,10.70
